createdAt,value
2022-09-23T00:00:59.882Z,7.57
2022-09-23T00:03:28.816Z,8.13
2022-09-23T00:05:59.513Z,7.80
2022-09-23T00:08:26.141Z,7.70
2022-09-23T00:10:52.550Z,7.47
2022-09-23T00:13:19.072Z,7.13
2022-09-23T00:15:46.728Z,7.17
2022-09-23T00:18:13.394Z,7.03
2022-09-23T00:20:40.468Z,7.03
2022-09-23T00:23:06.926Z,6.60
2022-09-23T00:25:33.871Z,7.37
2022-09-23T00:28:00.382Z,7.50
2022-09-23T00:30:27.376Z,7.17
2022-09-23T00:32:54.058Z,7.43
2022-09-23T00:35:20.629Z,7.47
2022-09-23T00:37:47.080Z,7.83
2022-09-23T00:40:13.636Z,9.20
2022-09-23T00:42:52.562Z,8.90
2022-09-23T00:45:19.477Z,8.40
2022-09-23T00:47:55.196Z,8.53
2022-09-23T00:50:27.424Z,9.10
2022-09-23T00:52:56.795Z,8.50
2022-09-23T00:55:27.632Z,8.60
2022-09-23T00:57:57.033Z,8.17
2022-09-23T01:00:23.745Z,8.90
2022-09-23T01:02:51.277Z,7.93
2022-09-23T01:05:18.809Z,8.70
2022-09-23T01:07:46.046Z,8.07
2022-09-23T01:10:14.664Z,7.87
2022-09-23T01:13:11.023Z,8.27
2022-09-23T01:15:48.773Z,8.60
2022-09-23T01:18:43.543Z,8.07
2022-09-23T01:21:22.673Z,9.17
2022-09-23T01:24:03.131Z,9.13
2022-09-23T01:26:54.598Z,10.03
2022-09-23T01:29:29.903Z,10.10
2022-09-23T01:32:19.596Z,11.00
2022-09-23T01:34:51.020Z,10.90
2022-09-23T01:37:38.206Z,10.00
2022-09-23T01:40:15.503Z,10.80
2022-09-23T01:42:42.813Z,10.20
2022-09-23T01:45:20.426Z,10.20
2022-09-23T01:48:04.899Z,10.70
2022-09-23T01:50:54.174Z,11.60
2022-09-23T01:53:49.606Z,11.70
2022-09-23T01:56:31.327Z,10.83
2022-09-23T01:59:04.233Z,10.00
2022-09-23T02:01:39.341Z,9.60
2022-09-23T02:04:13.378Z,10.73
2022-09-23T02:06:43.382Z,9.73
2022-09-23T02:09:12.921Z,10.03
2022-09-23T02:11:42.988Z,10.60
2022-09-23T02:14:18.968Z,10.03
2022-09-23T02:16:48.692Z,10.23
2022-09-23T02:19:28.369Z,10.03
2022-09-23T02:22:06.944Z,10.50
2022-09-23T02:24:35.026Z,10.63
2022-09-23T02:27:19.719Z,10.77
2022-09-23T02:29:55.550Z,11.50
2022-09-23T02:32:54.449Z,10.30
2022-09-23T02:35:29.458Z,9.57
2022-09-23T02:38:35.040Z,9.93
2022-09-23T02:41:15.082Z,9.77
2022-09-23T02:43:59.750Z,9.80
2022-09-23T02:46:26.915Z,10.80
2022-09-23T02:48:56.818Z,10.87
2022-09-23T02:51:25.727Z,9.83
2022-09-23T02:53:57.117Z,10.37
2022-09-23T02:56:23.658Z,9.87
2022-09-23T02:58:52.337Z,11.07
2022-09-23T03:01:39.321Z,9.90
2022-09-23T03:04:17.236Z,11.20
2022-09-23T03:07:06.740Z,11.47
2022-09-23T03:09:57.361Z,10.90
2022-09-23T03:12:36.419Z,10.90
2022-09-23T03:15:12.358Z,11.13
2022-09-23T03:17:46.913Z,10.27
2022-09-23T03:20:23.466Z,10.67
2022-09-23T03:22:53.956Z,10.43
2022-09-23T03:25:23.897Z,11.73
2022-09-23T03:27:50.637Z,11.43
2022-09-23T03:30:18.199Z,10.27
2022-09-23T03:32:45.637Z,10.40
2022-09-23T03:35:13.098Z,10.43
2022-09-23T03:37:43.220Z,11.20
2022-09-23T03:40:25.525Z,11.60
2022-09-23T03:42:53.985Z,12.67
2022-09-23T03:45:23.748Z,13.00
2022-09-23T03:47:50.216Z,12.20
2022-09-23T03:50:17.312Z,12.23
2022-09-23T03:52:44.464Z,11.93
2022-09-23T03:55:11.274Z,11.73
2022-09-23T03:57:38.034Z,12.67
2022-09-23T04:00:06.850Z,14.67
2022-09-23T04:02:33.800Z,11.50
2022-09-23T04:05:01.116Z,9.67
2022-09-23T04:07:27.630Z,10.20
2022-09-23T04:09:54.296Z,11.93
2022-09-23T04:12:20.716Z,12.37
2022-09-23T04:14:47.248Z,12.13
2022-09-23T04:17:13.973Z,12.23
2022-09-23T04:19:40.868Z,11.23
2022-09-23T04:22:08.009Z,13.80
2022-09-23T04:24:34.568Z,13.37
2022-09-23T04:27:01.090Z,12.83
2022-09-23T04:29:27.641Z,13.67
2022-09-23T04:31:54.520Z,14.70
2022-09-23T04:34:21.596Z,11.97
2022-09-23T04:36:48.894Z,12.33
2022-09-23T04:39:16.070Z,12.10
2022-09-23T04:41:43.572Z,12.73
2022-09-23T04:44:14.585Z,14.00
2022-09-23T04:46:41.884Z,14.37
2022-09-23T04:49:08.651Z,14.10
2022-09-23T04:51:35.239Z,19.43
2022-09-23T04:54:01.782Z,12.10
2022-09-23T04:56:29.743Z,16.33
2022-09-23T04:59:01.720Z,19.63
2022-09-23T05:01:31.009Z,14.43
2022-09-23T05:04:03.169Z,12.50
2022-09-23T05:06:31.548Z,15.03
2022-09-23T05:08:58.781Z,15.03
2022-09-23T05:11:26.088Z,14.40
2022-09-23T05:13:54.010Z,19.23
2022-09-23T05:16:22.734Z,14.13
2022-09-23T05:18:50.172Z,14.93
2022-09-23T05:21:18.302Z,11.73
2022-09-23T05:23:49.288Z,13.43
2022-09-23T05:26:16.120Z,18.27
2022-09-23T05:28:42.701Z,13.67
2022-09-23T05:31:20.024Z,13.13
2022-09-23T05:33:49.965Z,13.70
2022-09-23T05:36:19.910Z,14.00
2022-09-23T05:38:46.441Z,12.77
2022-09-23T05:41:13.920Z,13.07
2022-09-23T05:43:41.124Z,11.10
2022-09-23T05:46:16.041Z,11.20
2022-09-23T05:48:43.210Z,10.83
2022-09-23T05:51:13.965Z,9.73
2022-09-23T05:53:41.002Z,10.37
2022-09-23T05:56:07.932Z,11.00
2022-09-23T05:58:34.688Z,9.73
2022-09-23T06:01:01.189Z,11.03
2022-09-23T06:03:27.651Z,9.57
2022-09-23T06:05:55.029Z,9.70
2022-09-23T06:08:23.560Z,9.20
2022-09-23T06:10:54.456Z,9.53
2022-09-23T06:13:21.364Z,9.23
2022-09-23T06:15:48.012Z,10.57
2022-09-23T06:18:14.571Z,10.03
2022-09-23T06:20:41.027Z,9.40
2022-09-23T06:23:10.607Z,10.20
2022-09-23T06:25:40.783Z,10.30
2022-09-23T06:28:12.228Z,11.67
2022-09-23T06:30:42.544Z,10.63
2022-09-23T06:33:10.095Z,12.37
2022-09-23T06:35:36.602Z,12.33
2022-09-23T06:38:04.995Z,13.80
2022-09-23T06:40:31.672Z,12.80
2022-09-23T06:42:59.857Z,13.37
2022-09-23T06:45:27.297Z,13.00
2022-09-23T06:47:58.698Z,13.20
2022-09-23T06:50:26.472Z,12.20
2022-09-23T06:52:56.697Z,11.57
2022-09-23T06:55:24.646Z,12.63
2022-09-23T06:57:51.208Z,12.37
2022-09-23T07:00:18.176Z,12.40
2022-09-23T07:02:44.891Z,12.23
2022-09-23T07:05:11.749Z,13.03
2022-09-23T07:07:43.606Z,13.83
2022-09-23T07:10:11.498Z,14.30
2022-09-23T07:12:38.044Z,15.40
2022-09-23T07:15:04.894Z,14.87
2022-09-23T07:17:31.393Z,14.63
2022-09-23T07:20:00.555Z,14.77
2022-09-23T07:22:30.423Z,14.10
2022-09-23T07:25:01.248Z,13.23
2022-09-23T07:27:27.834Z,13.33
2022-09-23T07:29:55.193Z,11.50
2022-09-23T07:32:23.085Z,10.40
2022-09-23T07:34:50.104Z,11.70
2022-09-23T07:37:17.950Z,10.83
2022-09-23T07:39:45.450Z,10.60
2022-09-23T07:42:13.439Z,9.90
2022-09-23T07:44:47.817Z,10.43
2022-09-23T07:47:14.655Z,10.53
2022-09-23T07:49:41.534Z,9.83
2022-09-23T07:52:08.021Z,9.00
2022-09-23T07:54:34.912Z,8.57
2022-09-23T07:57:01.591Z,8.50
2022-09-23T07:59:28.158Z,9.60
2022-09-23T08:01:56.812Z,9.67
2022-09-23T08:04:26.682Z,9.63
2022-09-23T08:06:58.894Z,9.30
2022-09-23T08:09:28.474Z,8.17
2022-09-23T08:11:55.410Z,8.10
2022-09-23T08:14:22.499Z,8.60
2022-09-23T08:16:49.493Z,8.30
2022-09-23T08:19:16.721Z,8.60
2022-09-23T08:21:43.592Z,8.00
2022-09-23T08:24:14.666Z,9.03
2022-09-23T08:26:41.208Z,8.00
2022-09-23T08:29:10.163Z,8.77
2022-09-23T08:31:36.837Z,8.97
2022-09-23T08:34:04.843Z,8.43
2022-09-23T08:36:31.950Z,8.03
2022-09-23T08:38:58.409Z,7.13
2022-09-23T08:41:58.824Z,7.83
2022-09-23T08:44:44.400Z,8.60
2022-09-23T08:47:13.637Z,8.50
2022-09-23T08:49:45.743Z,8.60
2022-09-23T08:52:18.476Z,8.90
2022-09-23T08:54:44.930Z,10.53
2022-09-23T08:57:24.495Z,7.90
2022-09-23T08:59:51.198Z,7.67
2022-09-23T09:02:19.469Z,5.73
2022-09-23T09:04:49.909Z,6.10
2022-09-23T09:07:37.633Z,5.87
2022-09-23T09:10:20.591Z,5.73
2022-09-23T09:12:50.392Z,6.20
2022-09-23T09:15:24.852Z,5.47
2022-09-23T09:18:21.408Z,5.87
2022-09-23T09:21:00.753Z,6.13
2022-09-23T09:23:40.936Z,6.77
2022-09-23T09:26:11.744Z,4.70
2022-09-23T09:28:42.082Z,3.40
2022-09-23T09:31:45.109Z,3.97
2022-09-23T09:34:40.719Z,5.33
2022-09-23T09:37:13.716Z,2.10
2022-09-23T09:39:40.808Z,0.90
2022-09-23T09:42:07.562Z,1.07
2022-09-23T09:44:48.400Z,0.70
2022-09-23T09:47:28.639Z,0.80
2022-09-23T09:50:11.349Z,0.77
2022-09-23T09:52:44.071Z,0.77
2022-09-23T09:55:13.666Z,0.73
2022-09-23T09:58:06.192Z,1.00
2022-09-23T10:00:43.005Z,0.80
2022-09-23T10:03:15.140Z,0.67
2022-09-23T10:05:44.973Z,1.00
2022-09-23T10:08:27.347Z,0.70
2022-09-23T10:11:17.185Z,0.90
2022-09-23T10:14:12.850Z,0.87
2022-09-23T10:16:41.581Z,0.90
2022-09-23T10:19:22.734Z,0.60
2022-09-23T10:21:59.319Z,0.90
2022-09-23T10:24:30.101Z,0.80
2022-09-23T10:27:08.893Z,0.70
2022-09-23T10:29:45.869Z,0.90
2022-09-23T10:32:31.171Z,0.93
2022-09-23T10:35:04.637Z,0.90
2022-09-23T10:37:38.886Z,1.00
2022-09-23T10:40:34.581Z,0.90
2022-09-23T10:43:24.364Z,1.23
2022-09-23T10:46:09.537Z,0.90
2022-09-23T10:49:12.073Z,1.10
2022-09-23T10:51:57.128Z,0.80
2022-09-23T10:54:56.396Z,1.00
2022-09-23T10:57:38.159Z,0.90
2022-09-23T11:00:23.683Z,1.00
2022-09-23T11:03:21.353Z,0.97
2022-09-23T11:06:08.469Z,1.63
2022-09-23T11:08:40.986Z,1.00
2022-09-23T11:11:39.517Z,1.00
2022-09-23T11:14:22.956Z,1.07
2022-09-23T11:16:58.243Z,0.93
2022-09-23T11:19:56.630Z,1.03
2022-09-23T11:22:54.234Z,0.90
2022-09-23T11:25:43.533Z,1.00
2022-09-23T11:28:52.537Z,0.93
2022-09-23T11:31:37.608Z,1.27
2022-09-23T11:34:13.355Z,1.23
2022-09-23T11:36:43.714Z,0.93
2022-09-23T11:39:19.468Z,0.80
2022-09-23T11:41:46.646Z,0.90
2022-09-23T11:44:23.134Z,0.90
2022-09-23T11:47:19.573Z,0.67
2022-09-23T11:49:58.134Z,0.90
2022-09-23T11:52:24.666Z,1.10
2022-09-23T11:54:52.189Z,0.80
2022-09-23T11:57:43.560Z,0.60
2022-09-23T12:00:19.040Z,0.83
2022-09-23T12:03:05.721Z,0.90
2022-09-23T12:05:40.235Z,0.90
2022-09-23T12:08:15.753Z,0.90
2022-09-23T12:10:54.305Z,1.07
2022-09-23T12:13:42.062Z,1.10
2022-09-23T12:16:25.738Z,1.00
2022-09-23T12:19:18.333Z,1.10
2022-09-23T12:22:24.157Z,1.37
2022-09-23T12:25:14.283Z,0.90
2022-09-23T12:27:45.798Z,1.00
2022-09-23T12:30:20.033Z,1.00
2022-09-23T12:32:46.854Z,1.27
2022-09-23T12:35:35.752Z,1.00
2022-09-23T12:38:05.181Z,1.10
2022-09-23T12:40:34.983Z,1.10
2022-09-23T12:43:04.974Z,1.07
2022-09-23T12:45:35.003Z,1.00
2022-09-23T12:48:05.042Z,1.20
2022-09-23T12:51:03.863Z,0.80
2022-09-23T12:53:33.643Z,1.33
2022-09-23T12:56:02.256Z,1.00
2022-09-23T12:58:57.593Z,0.80
2022-09-23T13:01:25.943Z,0.80
2022-09-23T13:04:13.287Z,0.93
2022-09-23T13:06:42.104Z,1.00
2022-09-23T13:09:15.017Z,1.10
2022-09-23T13:11:43.608Z,1.10
2022-09-23T13:14:13.360Z,1.27
2022-09-23T13:16:43.951Z,1.10
2022-09-23T13:19:35.385Z,1.00
2022-09-23T13:22:09.096Z,0.87
2022-09-23T13:24:47.637Z,1.00
2022-09-23T13:27:33.584Z,0.97
2022-09-23T13:30:04.848Z,0.70
2022-09-23T13:32:35.174Z,0.87
2022-09-23T13:35:24.375Z,1.17
2022-09-23T13:37:50.871Z,1.03
2022-09-23T13:40:19.558Z,1.03
2022-09-23T13:42:59.877Z,1.03
2022-09-23T13:45:28.012Z,0.90
2022-09-23T13:48:00.515Z,1.00
2022-09-23T13:50:29.519Z,1.20
2022-09-23T13:53:01.455Z,1.10
2022-09-23T13:55:37.365Z,1.00
2022-09-23T13:58:20.521Z,1.50
2022-09-23T14:00:48.031Z,1.13
2022-09-23T14:03:45.545Z,1.30
2022-09-23T14:06:17.144Z,1.37
2022-09-23T14:08:50.394Z,0.90
2022-09-23T14:11:18.619Z,1.20
2022-09-23T14:13:47.085Z,1.03
2022-09-23T14:16:17.302Z,1.10
2022-09-23T14:18:49.629Z,1.30
2022-09-23T14:21:36.396Z,3.30
2022-09-23T14:24:30.979Z,2.83
2022-09-23T14:27:06.386Z,1.33
2022-09-23T14:29:38.089Z,1.07
2022-09-23T14:32:21.339Z,1.50
2022-09-23T14:35:00.936Z,1.20
2022-09-23T14:37:53.556Z,2.77
2022-09-23T14:40:27.467Z,1.50
2022-09-23T14:43:27.963Z,1.20
2022-09-23T14:45:56.567Z,1.80
2022-09-23T14:48:28.729Z,1.27
2022-09-23T14:50:58.122Z,1.30
2022-09-23T14:53:41.397Z,1.20
2022-09-23T14:56:11.480Z,1.03
2022-09-23T14:58:57.811Z,0.97
2022-09-23T15:01:45.811Z,1.17
2022-09-23T15:04:17.006Z,0.93
2022-09-23T15:06:48.396Z,1.07
2022-09-23T15:09:26.896Z,1.70
2022-09-23T15:11:58.665Z,1.50
2022-09-23T15:14:38.189Z,1.30
2022-09-23T15:17:11.559Z,1.23
2022-09-23T15:19:38.178Z,1.20
2022-09-23T15:22:07.601Z,1.00
2022-09-23T15:24:36.618Z,1.23
2022-09-23T15:27:10.795Z,1.10
2022-09-23T15:29:37.408Z,1.23
2022-09-23T15:32:06.571Z,1.00
2022-09-23T15:34:33.291Z,1.30
2022-09-23T15:36:59.751Z,1.67
2022-09-23T15:39:35.496Z,1.70
2022-09-23T15:42:03.001Z,1.40
2022-09-23T15:44:29.937Z,1.97
2022-09-23T15:46:59.169Z,1.73
2022-09-23T15:49:29.871Z,1.40
2022-09-23T15:51:59.307Z,1.90
2022-09-23T15:54:25.747Z,1.80
2022-09-23T15:56:52.355Z,2.40
2022-09-23T15:59:19.141Z,2.33
2022-09-23T16:01:45.983Z,2.20
2022-09-23T16:04:15.620Z,2.10
2022-09-23T16:06:44.480Z,2.57
2022-09-23T16:09:13.355Z,2.90
2022-09-23T16:11:44.391Z,3.33
2022-09-23T16:14:13.884Z,2.97
2022-09-23T16:16:42.422Z,3.73
2022-09-23T16:19:09.032Z,4.30
2022-09-23T16:21:35.523Z,4.50
2022-09-23T16:24:03.531Z,7.73
2022-09-23T16:26:31.972Z,4.10
2022-09-23T16:28:59.546Z,2.30
2022-09-23T16:31:29.537Z,2.93
2022-09-23T16:33:56.586Z,3.07
2022-09-23T16:36:31.815Z,3.47
2022-09-23T16:38:59.962Z,3.80
2022-09-23T16:41:33.862Z,4.67
2022-09-23T16:44:02.805Z,4.90
2022-09-23T16:46:29.745Z,4.73
2022-09-23T16:48:57.582Z,4.93
2022-09-23T16:51:33.286Z,4.50
2022-09-23T16:54:00.041Z,3.53
2022-09-23T16:56:29.055Z,3.40
2022-09-23T16:58:56.143Z,2.80
2022-09-23T17:01:46.710Z,2.50
2022-09-23T17:04:14.518Z,3.40
2022-09-23T17:06:50.067Z,2.80
2022-09-23T17:09:18.816Z,2.60
2022-09-23T17:11:47.758Z,2.93
2022-09-23T17:14:15.605Z,3.07
2022-09-23T17:16:42.265Z,3.40
2022-09-23T17:19:11.514Z,5.50
2022-09-23T17:21:38.037Z,5.43
2022-09-23T17:24:05.029Z,3.90
2022-09-23T17:26:31.569Z,3.90
2022-09-23T17:28:59.372Z,4.23
2022-09-23T17:31:26.105Z,4.00
2022-09-23T17:33:53.050Z,4.23
2022-09-23T17:36:20.133Z,4.97
2022-09-23T17:38:48.188Z,6.20
2022-09-23T17:41:15.325Z,6.60
2022-09-23T17:43:41.937Z,7.37
2022-09-23T17:46:10.682Z,7.00
2022-09-23T17:48:39.365Z,6.83
2022-09-23T17:51:08.342Z,7.07
2022-09-23T17:53:37.209Z,7.17
2022-09-23T17:56:16.832Z,8.00
2022-09-23T17:58:44.121Z,8.40
2022-09-23T18:01:19.543Z,9.70
2022-09-23T18:03:47.413Z,9.77
2022-09-23T18:06:17.580Z,13.87
2022-09-23T18:08:45.659Z,13.93
2022-09-23T18:11:19.801Z,14.80
2022-09-23T18:13:54.126Z,16.53
2022-09-23T18:16:22.487Z,19.67
2022-09-23T18:18:53.183Z,20.47
2022-09-23T18:21:20.827Z,18.13
2022-09-23T18:23:47.748Z,15.30
2022-09-23T18:26:19.630Z,25.60
2022-09-23T18:28:46.287Z,16.33
2022-09-23T18:31:13.435Z,10.07
2022-09-23T18:33:40.072Z,9.43
2022-09-23T18:36:07.860Z,8.00
2022-09-23T18:38:34.721Z,7.17
2022-09-23T18:41:01.646Z,7.10
2022-09-23T18:43:39.393Z,8.37
2022-09-23T18:46:11.732Z,7.73
2022-09-23T18:48:56.876Z,6.63
2022-09-23T18:51:25.747Z,6.50
2022-09-23T18:53:57.472Z,7.10
2022-09-23T18:56:29.712Z,6.77
2022-09-23T18:58:56.298Z,6.50
2022-09-23T19:01:23.754Z,5.97
2022-09-23T19:03:57.032Z,5.73
2022-09-23T19:06:24.457Z,6.20
2022-09-23T19:08:52.489Z,6.10
2022-09-23T19:11:19.552Z,5.93
2022-09-23T19:13:46.317Z,5.10
2022-09-23T19:16:14.983Z,6.00
2022-09-23T19:18:43.505Z,5.67
2022-09-23T19:21:12.727Z,5.73
2022-09-23T19:23:40.037Z,5.30
2022-09-23T19:26:11.233Z,5.60
2022-09-23T19:28:37.921Z,5.83
2022-09-23T19:31:11.897Z,5.37
2022-09-23T19:33:41.138Z,5.77
2022-09-23T19:36:10.691Z,5.27
2022-09-23T19:38:38.336Z,5.60
2022-09-23T19:41:07.851Z,4.77
2022-09-23T19:43:37.842Z,5.00
2022-09-23T19:46:05.653Z,4.73
2022-09-23T19:48:32.371Z,4.73
2022-09-23T19:50:59.020Z,4.77
2022-09-23T19:53:28.152Z,6.17
2022-09-23T19:55:56.075Z,4.60
2022-09-23T19:58:23.177Z,4.73
2022-09-23T20:00:49.660Z,4.60
2022-09-23T20:03:17.632Z,4.43
2022-09-23T20:05:44.060Z,4.20
2022-09-23T20:08:10.492Z,5.23
2022-09-23T20:10:39.378Z,5.03
2022-09-23T20:13:05.830Z,4.53
2022-09-23T20:15:32.364Z,6.03
2022-09-23T20:17:58.765Z,6.00
2022-09-23T20:20:25.159Z,5.73
2022-09-23T20:22:54.282Z,5.50
2022-09-23T20:25:20.938Z,5.23
2022-09-23T20:27:53.320Z,4.73
2022-09-23T20:30:20.700Z,5.50
2022-09-23T20:32:50.768Z,5.30
2022-09-23T20:35:17.180Z,5.53
2022-09-23T20:37:44.637Z,6.43
2022-09-23T20:40:11.147Z,11.47
2022-09-23T20:42:37.907Z,15.63
2022-09-23T20:45:06.815Z,11.83
2022-09-23T20:47:33.346Z,10.97
2022-09-23T20:49:59.847Z,10.77
2022-09-23T20:52:26.370Z,11.73
2022-09-23T20:54:52.940Z,11.60
2022-09-23T20:57:20.295Z,11.33
2022-09-23T20:59:46.848Z,11.87
2022-09-23T21:02:13.316Z,9.97
2022-09-23T21:04:39.936Z,10.50
2022-09-23T21:07:07.210Z,10.73
2022-09-23T21:09:33.740Z,10.77
2022-09-23T21:12:00.154Z,11.70
2022-09-23T21:14:26.742Z,10.70
2022-09-23T21:16:55.230Z,10.57
2022-09-23T21:19:21.714Z,10.17
2022-09-23T21:21:48.243Z,11.00
2022-09-23T21:27:04.374Z,10.80
2022-09-23T21:29:30.817Z,9.73
2022-09-23T21:31:57.496Z,9.13
2022-09-23T21:34:28.173Z,10.57
2022-09-23T21:36:56.624Z,10.70
2022-09-23T21:39:23.336Z,12.30
2022-09-23T21:41:51.229Z,16.80
2022-09-23T21:44:17.856Z,17.43
2022-09-23T21:46:44.355Z,17.27
2022-09-23T21:49:11.238Z,18.20
2022-09-23T21:51:41.036Z,18.07
2022-09-23T21:54:11.969Z,18.03
2022-09-23T21:56:38.429Z,17.87
2022-09-23T21:59:05.696Z,16.90
2022-09-23T22:01:37.622Z,14.87
2022-09-23T22:04:10.151Z,17.20
2022-09-23T22:06:38.276Z,19.13
2022-09-23T22:09:09.987Z,17.80
2022-09-23T22:11:56.819Z,17.93
2022-09-23T22:14:27.503Z,18.87
2022-09-23T22:16:59.124Z,17.40
2022-09-23T22:19:27.908Z,17.23
2022-09-23T22:21:56.166Z,16.00
2022-09-23T22:24:22.764Z,16.43
2022-09-23T22:26:49.231Z,14.70
2022-09-23T22:29:34.847Z,16.27
2022-09-23T22:32:21.425Z,15.87
2022-09-23T22:34:52.541Z,15.23
2022-09-23T22:37:21.337Z,15.77
2022-09-23T22:39:47.763Z,15.90
2022-09-23T22:42:14.347Z,16.47
2022-09-23T22:44:40.891Z,15.73
2022-09-23T22:47:08.017Z,15.87
2022-09-23T22:49:34.917Z,14.70
2022-09-23T22:52:03.106Z,16.40
2022-09-23T22:54:33.749Z,16.03
2022-09-23T22:57:05.114Z,14.23
2022-09-23T22:59:31.804Z,15.47
2022-09-23T23:01:59.729Z,15.20
2022-09-23T23:04:26.976Z,15.67
2022-09-23T23:06:53.951Z,13.87
2022-09-23T23:09:20.425Z,15.17
2022-09-23T23:11:47.264Z,14.80
2022-09-23T23:14:16.140Z,16.07
2022-09-23T23:16:43.265Z,15.33
2022-09-23T23:19:13.489Z,15.23
2022-09-23T23:21:43.382Z,15.70
2022-09-23T23:24:17.838Z,14.93
2022-09-23T23:26:45.117Z,15.93
2022-09-23T23:29:13.147Z,16.07
2022-09-23T23:31:39.950Z,16.23
2022-09-23T23:34:08.360Z,16.53
2022-09-23T23:36:34.899Z,16.43
2022-09-23T23:39:01.462Z,17.43
2022-09-23T23:41:28.331Z,20.93
2022-09-23T23:43:56.682Z,17.27
2022-09-23T23:46:25.432Z,17.33
2022-09-23T23:48:52.367Z,15.87
2022-09-23T23:51:18.937Z,16.67
2022-09-23T23:53:45.457Z,16.50
2022-09-23T23:56:14.661Z,15.83
2022-09-23T23:58:41.363Z,16.83
